createdAt,value
2018-05-29T00:02:20.016Z,11.97
2018-05-29T00:07:23.871Z,11.38
2018-05-29T00:12:28.478Z,11.07
2018-05-29T00:17:32.931Z,11.77
2018-05-29T00:22:36.024Z,11.30
2018-05-29T00:27:40.263Z,11.57
2018-05-29T00:32:44.738Z,11.50
2018-05-29T00:37:48.581Z,11.67
2018-05-29T00:42:52.439Z,11.20
2018-05-29T00:47:55.543Z,11.77
2018-05-29T00:52:58.626Z,12.47
2018-05-29T00:58:02.493Z,11.97
2018-05-29T01:03:06.942Z,13.00
2018-05-29T01:08:11.391Z,12.13
2018-05-29T01:13:14.494Z,12.63
2018-05-29T01:18:17.576Z,12.47
2018-05-29T01:23:21.425Z,13.43
2018-05-29T01:28:24.526Z,12.27
2018-05-29T01:33:27.622Z,12.63
2018-05-29T01:38:31.110Z,12.10
2018-05-29T01:43:34.602Z,11.80
2018-05-29T01:48:38.831Z,12.27
2018-05-29T01:53:41.922Z,12.87
2018-05-29T01:58:45.406Z,12.70
2018-05-29T02:03:49.264Z,12.40
2018-05-29T02:08:52.758Z,11.80
2018-05-29T02:13:56.612Z,12.23
2018-05-29T02:18:59.697Z,12.47
2018-05-29T02:24:03.552Z,13.37
2018-05-29T02:29:07.782Z,14.23
2018-05-29T02:34:12.049Z,13.27
2018-05-29T02:39:16.477Z,14.17
2018-05-29T02:44:20.922Z,13.93
2018-05-29T02:49:24.006Z,13.30
2018-05-29T02:54:27.119Z,13.63
2018-05-29T02:59:31.562Z,13.53
2018-05-29T03:04:34.658Z,14.27
2018-05-29T03:09:39.103Z,13.83
2018-05-29T03:14:43.539Z,13.30
2018-05-29T03:19:46.639Z,13.30
2018-05-29T03:24:51.542Z,13.83
2018-05-29T03:29:54.638Z,13.03
2018-05-29T03:34:57.726Z,13.30
2018-05-29T03:40:01.585Z,13.57
2018-05-29T03:45:05.076Z,13.53
2018-05-29T03:50:08.197Z,13.33
2018-05-29T03:55:11.682Z,13.73
2018-05-29T04:00:16.131Z,14.03
2018-05-29T04:05:19.988Z,13.63
2018-05-29T04:10:24.589Z,13.73
2018-05-29T04:15:29.027Z,13.47
2018-05-29T04:20:33.631Z,13.43
2018-05-29T04:25:37.870Z,13.80
2018-05-29T04:30:41.730Z,13.80
2018-05-29T04:35:44.834Z,14.80
2018-05-29T04:40:47.926Z,13.57
2018-05-29T04:45:52.379Z,14.30
2018-05-29T04:50:55.474Z,15.00
2018-05-29T04:55:58.574Z,14.90
2018-05-29T05:01:02.067Z,14.67
2018-05-29T05:06:05.173Z,15.03
2018-05-29T05:11:08.262Z,14.77
2018-05-29T05:16:11.366Z,15.47
2018-05-29T05:21:15.794Z,16.63
2018-05-29T05:26:19.665Z,16.77
2018-05-29T05:31:23.898Z,14.90
2018-05-29T05:36:28.131Z,14.40
2018-05-29T05:41:32.561Z,14.47
2018-05-29T05:46:37.151Z,15.73
2018-05-29T05:51:42.203Z,15.15
2018-05-29T05:56:45.304Z,13.80
2018-05-29T06:01:49.764Z,13.10
2018-05-29T06:06:53.627Z,13.07
2018-05-29T06:11:56.740Z,13.57
2018-05-29T06:17:01.180Z,11.27
2018-05-29T06:22:05.411Z,11.07
2018-05-29T06:27:09.852Z,10.90
2018-05-29T06:32:13.344Z,12.00
2018-05-29T06:37:16.441Z,12.47
2018-05-29T06:42:20.311Z,12.20
2018-05-29T06:47:25.888Z,12.03
2018-05-29T06:52:29.760Z,9.40
2018-05-29T06:57:34.361Z,9.20
2018-05-29T07:02:38.599Z,8.73
2018-05-29T07:07:43.802Z,8.87
2018-05-29T07:12:47.667Z,8.43
2018-05-29T07:17:51.528Z,9.03
2018-05-29T07:22:55.395Z,9.50
2018-05-29T07:27:58.492Z,8.47
2018-05-29T07:33:02.938Z,9.07
2018-05-29T07:38:06.429Z,8.18
2018-05-29T07:43:09.532Z,9.47
2018-05-29T07:48:13.755Z,8.93
2018-05-29T07:53:16.842Z,8.57
2018-05-29T07:58:21.293Z,8.02
2018-05-29T08:03:25.526Z,8.75
2018-05-29T08:08:29.396Z,8.52
2018-05-29T08:13:32.895Z,8.63
2018-05-29T08:18:36.775Z,8.13
2018-05-29T08:23:40.614Z,8.23
2018-05-29T08:28:44.475Z,8.32
2018-05-29T08:33:47.569Z,8.48
2018-05-29T08:38:51.790Z,7.90
2018-05-29T08:43:55.655Z,8.45
2018-05-29T08:49:00.397Z,8.63
2018-05-29T08:54:04.631Z,8.68
2018-05-29T08:59:08.525Z,9.07
2018-05-29T09:04:12.392Z,9.07
2018-05-29T09:09:15.886Z,9.40
2018-05-29T09:14:19.375Z,9.05
2018-05-29T09:19:22.871Z,9.55
2018-05-29T09:24:26.362Z,9.32
2018-05-29T09:29:30.805Z,9.45
2018-05-29T09:34:33.905Z,9.02
2018-05-29T09:39:38.353Z,8.88
2018-05-29T09:44:42.872Z,9.20
2018-05-29T09:49:47.073Z,9.55
2018-05-29T09:54:50.977Z,10.20
2018-05-29T09:59:55.426Z,10.20
2018-05-29T10:04:59.881Z,10.23
2018-05-29T10:10:02.963Z,10.73
2018-05-29T10:15:06.821Z,10.25
2018-05-29T10:20:09.925Z,10.93
2018-05-29T10:25:14.159Z,10.88
2018-05-29T10:30:17.263Z,10.32
2018-05-29T10:35:21.123Z,11.07
2018-05-29T10:40:25.565Z,10.40
2018-05-29T10:45:29.803Z,10.90
2018-05-29T10:50:34.029Z,11.67
2018-05-29T10:55:38.271Z,11.60
2018-05-29T11:00:41.799Z,11.10
2018-05-29T11:05:46.039Z,11.55
2018-05-29T11:10:49.186Z,10.77
2018-05-29T11:15:53.049Z,10.40
2018-05-29T11:20:57.498Z,11.30
2018-05-29T11:26:01.948Z,11.70
2018-05-29T11:31:06.182Z,11.32
2018-05-29T11:36:09.283Z,11.60
2018-05-29T11:41:12.434Z,11.63
2018-05-29T11:46:16.670Z,11.60
2018-05-29T11:51:20.166Z,11.23
2018-05-29T11:56:24.694Z,11.48
2018-05-29T12:01:29.201Z,11.47
2018-05-29T12:06:32.305Z,11.67
2018-05-29T12:11:35.401Z,12.23
2018-05-29T12:16:39.261Z,11.10
2018-05-29T12:21:43.499Z,11.20
2018-05-29T12:26:46.608Z,11.47
2018-05-29T12:31:49.711Z,11.00
2018-05-29T12:36:53.570Z,10.93
2018-05-29T12:41:57.452Z,11.50
2018-05-29T12:47:00.934Z,11.20
2018-05-29T12:52:05.557Z,10.93
2018-05-29T12:57:09.406Z,10.40
2018-05-29T13:02:12.498Z,10.50
2018-05-29T13:07:17.098Z,10.43
2018-05-29T13:12:20.197Z,10.63
2018-05-29T13:17:24.989Z,10.07
2018-05-29T13:22:29.452Z,9.73
2018-05-29T13:27:33.667Z,10.73
2018-05-29T13:32:37.564Z,10.57
2018-05-29T13:37:41.967Z,10.07
2018-05-29T13:42:45.067Z,9.57
2018-05-29T13:47:48.932Z,10.20
2018-05-29T13:52:52.031Z,10.13
2018-05-29T13:57:55.514Z,10.50
2018-05-29T14:02:59.753Z,10.47
2018-05-29T14:08:02.860Z,7.60
2018-05-29T14:13:06.706Z,5.03
2018-05-29T14:18:10.569Z,4.77
2018-05-29T14:23:13.679Z,4.30
2018-05-29T14:28:18.107Z,4.33
2018-05-29T14:33:22.552Z,4.90
2018-05-29T14:38:27.039Z,4.60
2018-05-29T14:43:31.417Z,4.47
2018-05-29T14:48:36.019Z,4.37
2018-05-29T14:53:39.120Z,3.97
2018-05-29T14:58:43.580Z,4.40
2018-05-29T15:03:47.042Z,3.97
2018-05-29T15:08:50.526Z,4.20
2018-05-29T15:13:54.986Z,4.10
2018-05-29T15:18:58.081Z,4.70
2018-05-29T15:24:01.167Z,4.80
2018-05-29T15:29:04.659Z,4.73
2018-05-29T15:34:07.759Z,4.80
2018-05-29T15:39:11.617Z,4.70
2018-05-29T15:44:15.109Z,4.40
2018-05-29T15:49:19.362Z,4.60
2018-05-29T15:54:23.207Z,4.97
2018-05-29T15:59:26.299Z,4.73
2018-05-29T16:04:29.390Z,4.93
2018-05-29T16:09:33.980Z,5.17
2018-05-29T16:14:37.079Z,5.33
2018-05-29T16:19:40.180Z,5.10
2018-05-29T16:24:44.622Z,6.13
2018-05-29T16:29:48.871Z,5.90
2018-05-29T16:34:51.960Z,6.30
2018-05-29T16:39:55.831Z,5.93
2018-05-29T16:45:00.066Z,7.00
2018-05-29T16:50:04.539Z,6.47
2018-05-29T16:55:09.159Z,6.93
2018-05-29T17:00:13.388Z,6.63
2018-05-29T17:05:17.848Z,6.80
2018-05-29T17:10:22.447Z,7.07
2018-05-29T17:15:25.686Z,7.60
2018-05-29T17:20:30.014Z,7.77
2018-05-29T17:25:34.465Z,7.97
2018-05-29T17:30:38.321Z,8.70
2018-05-29T17:35:42.760Z,9.40
2018-05-29T17:40:45.849Z,9.57
2018-05-29T17:45:49.719Z,9.27
2018-05-29T17:50:52.821Z,7.77
2018-05-29T17:55:55.919Z,7.50
2018-05-29T18:00:59.015Z,7.40
2018-05-29T18:06:03.255Z,7.43
2018-05-29T18:11:07.682Z,8.20
2018-05-29T18:16:10.783Z,7.77
2018-05-29T18:21:13.873Z,9.13
2018-05-29T18:26:17.356Z,10.90
2018-05-29T18:31:20.454Z,10.33
2018-05-29T18:36:24.953Z,9.43
2018-05-29T18:41:28.046Z,8.73
2018-05-29T18:46:31.534Z,8.37
2018-05-29T18:51:35.031Z,9.40
2018-05-29T18:56:39.472Z,8.43
2018-05-29T19:01:43.336Z,8.53
2018-05-29T19:06:47.934Z,9.03
2018-05-29T19:11:51.035Z,9.27
2018-05-29T19:16:54.597Z,9.30
2018-05-29T19:21:57.626Z,10.07
2018-05-29T19:27:01.483Z,10.27
2018-05-29T19:32:04.973Z,10.40
2018-05-29T19:37:09.195Z,9.80
2018-05-29T19:42:13.646Z,10.47
2018-05-29T19:47:17.146Z,10.47
2018-05-29T19:52:21.375Z,10.13
2018-05-29T19:57:26.937Z,10.10
2018-05-29T20:02:31.378Z,9.70
2018-05-29T20:07:35.830Z,9.80
2018-05-29T20:12:39.697Z,8.93
2018-05-29T20:17:43.930Z,9.57
2018-05-29T20:22:48.155Z,9.07
2018-05-29T20:27:51.242Z,9.37
2018-05-29T20:32:54.339Z,9.70
2018-05-29T20:37:58.189Z,9.93
2018-05-29T20:43:02.638Z,10.37
2018-05-29T20:48:07.073Z,10.17
2018-05-29T20:53:10.166Z,10.17
2018-05-29T20:58:14.777Z,11.63
2018-05-29T21:03:19.019Z,12.13
2018-05-29T21:08:23.251Z,11.30
2018-05-29T21:13:27.110Z,11.63
2018-05-29T21:18:30.965Z,10.83
2018-05-29T21:23:35.198Z,11.73
2018-05-29T21:28:38.698Z,12.50
2018-05-29T21:33:43.142Z,13.13
2018-05-29T21:38:47.585Z,12.33
2018-05-29T21:43:50.674Z,13.10
2018-05-29T21:48:54.232Z,14.47
2018-05-29T21:53:57.714Z,15.77
2018-05-29T21:59:01.520Z,15.90
2018-05-29T22:04:05.014Z,18.07
2018-05-29T22:09:08.520Z,18.43
2018-05-29T22:14:12.020Z,20.20
2018-05-29T22:19:15.111Z,20.47
2018-05-29T22:24:18.971Z,22.63
2018-05-29T22:29:22.063Z,21.20
2018-05-29T22:34:25.166Z,18.60
2018-05-29T22:39:29.035Z,19.97
2018-05-29T22:44:33.473Z,23.27
2018-05-29T22:49:37.325Z,22.17
2018-05-29T22:54:41.181Z,23.27
2018-05-29T22:59:45.786Z,23.50
2018-05-29T23:04:49.275Z,24.57
2018-05-29T23:09:53.527Z,24.83
2018-05-29T23:14:57.390Z,21.57
2018-05-29T23:20:01.255Z,24.23
2018-05-29T23:25:05.120Z,25.70
2018-05-29T23:30:08.981Z,24.80
2018-05-29T23:35:12.072Z,25.13
2018-05-29T23:40:15.163Z,26.57
2018-05-29T23:45:18.259Z,27.80
2018-05-29T23:50:21.355Z,27.73
2018-05-29T23:55:24.451Z,28.33
